Falcon — WBE7134 — position and weather

sailwx.info

Track history (hours):
 
Tides and Currents Weather Stations Pressure Air Temp Water Temp Dewpoint Dewpoint Depression Visibility Wind Speed Wind Dir Waves Ship Positions

Falcon

Owner: Allied Transportation Company, NORFOLK, VA. More information available from US FCC via Universal Licensing System and Coast Guard Vessel Documentation Center.

Last reported at 2017-Mar-29 07:33 UTC. Time now 2017-Mar-30 16:47 UTC.
Position N 36°52' W 075°52'.

Length 37 m; draft 8 m.

Type: Tug. MMSI: 366976720.

Date/timePositionNaut miles runAvg speedWind from/ knotsBaromVisibWave heightAir tempDewpointWater temp
2017-Mar-29 07:33N 36°52' W 075°52'1010.1
2017-Mar-29 06:34N 36°57' W 076°03'15 4.8
2017-Mar-29 03:31N 36°55' W 076°20'5 5.4
2017-Mar-29 02:34N 36°50' W 076°17'0 0.0
2017-Mar-29 01:34N 36°50' W 076°17'0 0.0
2017-Mar-29 00:34N 36°50' W 076°17'0 0.0
2017-Mar-28 23:33N 36°50' W 076°17'1 0.7
2017-Mar-28 22:34N 36°51' W 076°17'5 5.0
2017-Mar-28 21:32N 36°55' W 076°20'4 4.1
2017-Mar-28 20:33N 36°59' W 076°20'8 3.9
2017-Mar-28 18:34N 36°60' W 076°10'6 5.6
2017-Mar-28 17:34N 36°58' W 076°04'6 5.7
2017-Mar-28 16:33N 36°56' W 075°57'7 6.8
2017-Mar-28 15:33N 36°52' W 075°50'3 0.2
2017-Mar-27 18:17N 36°49' W 075°47'7 9.0
2017-Mar-27 17:34N 36°53' W 075°54'10 9.6
2017-Mar-27 16:33N 36°58' W 076°05'13 8.7
2017-Mar-27 15:07N 36°58' W 076°20'1 1.1
2017-Mar-27 14:33N 36°58' W 076°21'4 4.2
2017-Mar-27 13:34N 36°53' W 076°20'4 4.2
2017-Mar-27 12:34N 36°50' W 076°16'0 0.1
2017-Mar-27 11:33N 36°50' W 076°16'0 0.0
2017-Mar-27 10:33N 36°50' W 076°16'0 0.0
2017-Mar-27 09:30N 36°50' W 076°16'0 0.0
2017-Mar-27 08:33N 36°50' W 076°16'0 0.0
2017-Mar-27 07:33N 36°50' W 076°16'0 0.0
2017-Mar-27 06:33N 36°50' W 076°16'0 0.0
2017-Mar-27 05:33N 36°50' W 076°16'0 0.0
2017-Mar-27 04:33N 36°50' W 076°16'0 0.0
2017-Mar-27 03:33N 36°50' W 076°16'0 0.0
2017-Mar-27 02:33N 36°50' W 076°16'1 1.2
2017-Mar-27 01:33N 36°49' W 076°17'2 1.6
2017-Mar-27 00:33N 36°48' W 076°18'0 0.0
2017-Mar-26 23:33N 36°48' W 076°18'0 0.0
2017-Mar-26 22:33N 36°48' W 076°18'0 0.0
2017-Mar-26 21:33N 36°48' W 076°18'0 0.0
2017-Mar-26 20:33N 36°48' W 076°18'3 2.5
2017-Mar-26 19:31N 36°50' W 076°17'0 0.0
2017-Mar-26 18:31N 36°50' W 076°17'0 0.0
2017-Mar-26 17:31N 36°50' W 076°17'0 0.0
2017-Mar-26 16:31N 36°50' W 076°17'0 0.0
2017-Mar-26 15:31N 36°50' W 076°17'0 0.0
2017-Mar-26 14:31N 36°50' W 076°17'0 0.0
2017-Mar-26 13:31N 36°50' W 076°17'0 0.0
2017-Mar-26 12:31N 36°50' W 076°17'0 0.0
2017-Mar-26 11:31N 36°50' W 076°17'0 0.0
2017-Mar-26 10:28N 36°50' W 076°17'0 0.0
2017-Mar-26 09:31N 36°50' W 076°17'0 0.0
2017-Mar-26 08:31N 36°50' W 076°17'0 0.0
2017-Mar-26 07:31N 36°50' W 076°17'0 0.0
2017-Mar-26 06:31N 36°50' W 076°17'0 0.0
2017-Mar-26 05:31N 36°50' W 076°17'0 0.0
2017-Mar-26 04:31N 36°50' W 076°17'0 0.0
2017-Mar-26 03:31N 36°50' W 076°17'0 0.0
2017-Mar-26 02:31N 36°50' W 076°17'0 0.0
2017-Mar-26 01:31N 36°50' W 076°17'0 0.0
2017-Mar-26 00:31N 36°50' W 076°17'0 0.0
2017-Mar-25 23:31N 36°50' W 076°17'0 0.0
2017-Mar-25 22:31N 36°50' W 076°17'0 0.0
2017-Mar-25 21:31N 36°50' W 076°17'0 0.0
2017-Mar-25 20:31N 36°50' W 076°17'0 0.0
2017-Mar-25 19:31N 36°50' W 076°17'0 0.0
2017-Mar-25 18:28N 36°50' W 076°17'0 0.0
2017-Mar-25 17:31N 36°50' W 076°17'0 0.0
2017-Mar-25 16:31N 36°50' W 076°17'0 0.0
2017-Mar-25 15:31N 36°50' W 076°17'0 0.0
2017-Mar-25 14:31N 36°50' W 076°17'0 0.0
2017-Mar-25 13:31N 36°50' W 076°17'0 0.0
2017-Mar-25 12:31N 36°50' W 076°17'0 0.0
2017-Mar-25 11:31N 36°50' W 076°17'0 0.0
2017-Mar-25 10:31N 36°50' W 076°17'0 0.0
2017-Mar-25 09:31N 36°50' W 076°17'0 0.0
2017-Mar-25 08:31N 36°50' W 076°17'0 0.0
2017-Mar-25 07:31N 36°50' W 076°17'0 0.0
2017-Mar-25 06:31N 36°50' W 076°17'0 0.0
2017-Mar-25 05:31N 36°50' W 076°17'0 0.0
2017-Mar-25 04:31N 36°50' W 076°17'0 0.0
2017-Mar-25 03:31N 36°50' W 076°17'0 0.0
2017-Mar-25 02:31N 36°50' W 076°17'0 0.0
2017-Mar-25 01:31N 36°50' W 076°17'0 0.0
2017-Mar-25 00:31N 36°50' W 076°17'0 0.0
2017-Mar-24 23:31N 36°50' W 076°17'0 0.0
2017-Mar-24 22:31N 36°50' W 076°17'0 0.0
2017-Mar-24 21:31N 36°50' W 076°17'0 0.0
2017-Mar-24 20:31N 36°50' W 076°17'0 0.0
2017-Mar-24 19:31N 36°50' W 076°17'0 0.0
2017-Mar-24 18:31N 36°50' W 076°17'0 0.1
2017-Mar-24 17:33N 36°50' W 076°17'0 0.2
2017-Mar-24 16:33N 36°50' W 076°16'0 0.0
2017-Mar-24 15:33N 36°50' W 076°16'0 0.0
2017-Mar-24 14:33N 36°50' W 076°16'0 0.0
2017-Mar-24 13:33N 36°50' W 076°16'0 0.0
2017-Mar-24 12:33N 36°50' W 076°16'0 0.0
2017-Mar-24 11:33N 36°50' W 076°16'0 0.0
2017-Mar-24 10:33N 36°50' W 076°16'0 0.0
2017-Mar-24 09:33N 36°50' W 076°16'0 0.0
2017-Mar-24 08:33N 36°50' W 076°16'0 0.0
2017-Mar-24 07:33N 36°50' W 076°16'0 0.0
2017-Mar-24 06:33N 36°50' W 076°16'0 0.0
2017-Mar-24 05:33N 36°50' W 076°16'0 0.0
2017-Mar-24 04:33N 36°50' W 076°16'0 0.0
2017-Mar-24 03:33N 36°50' W 076°16'0 0.0
2017-Mar-24 02:33N 36°50' W 076°16'0 0.0
2017-Mar-24 01:33N 36°50' W 076°16'0 0.0
2017-Mar-24 00:33N 36°50' W 076°16'0 0.0
2017-Mar-23 23:33N 36°50' W 076°16'0 0.0
2017-Mar-23 22:33N 36°50' W 076°16'0 0.0
2017-Mar-23 21:33N 36°50' W 076°16'0 0.0
2017-Mar-23 20:33N 36°50' W 076°16'0 0.0
2017-Mar-23 19:31N 36°50' W 076°16'1 1.1
2017-Mar-23 18:33N 36°51' W 076°18'0 0.3
2017-Mar-23 17:34N 36°51' W 076°18'7 6.6
2017-Mar-23 16:33N 36°57' W 076°20'65 7.1
2017-Mar-23 07:20N 38°02' W 076°14'48 9.6
2017-Mar-23 02:17N 38°50' W 076°26'810.4
2017-Mar-23 01:31N 38°57' W 076°24'10 9.6
2017-Mar-23 00:30N 39°07' W 076°24'8 8.9
2017-Mar-22 23:33N 39°13' W 076°32'4 0.2
2017-Mar-22 01:10N 39°16' W 076°35'1 0.1
2017-Mar-21 09:33N 39°15' W 076°33'2 0.2
2017-Mar-20 21:21N 39°17' W 076°36'2 0.4
2017-Mar-20 15:32N 39°15' W 076°33'2 0.6
2017-Mar-20 12:04N 39°17' W 076°36'2 2.5
2017-Mar-20 11:12N 39°15' W 076°33'1 1.4
2017-Mar-20 10:30N 39°16' W 076°34'1 0.1
2017-Mar-19 21:09N 39°17' W 076°36'  
Track history (hours):
 
Tides and Currents Weather Stations Pressure Air Temp Water Temp Dewpoint Dewpoint Depression Visibility Wind Speed Wind Dir Waves Ship Positions

Falcon

Owner: Allied Transportation Company, NORFOLK, VA. More information available from US FCC via Universal Licensing System and Coast Guard Vessel Documentation Center.

Last reported at 2017-Mar-29 07:33 UTC. Time now 2017-Mar-30 16:47 UTC.
Position N 36°52' W 075°52'.

Length 37 m; draft 8 m.

Type: Tug. MMSI: 366976720.

Date/timePositionNaut miles runAvg speedWind from/ knotsBaromVisibWave heightAir tempDewpointWater temp
2017-Mar-29 07:33N 36°52' W 075°52'1010.1
2017-Mar-29 06:34N 36°57' W 076°03'15 4.8
2017-Mar-29 03:31N 36°55' W 076°20'5 5.4
2017-Mar-29 02:34N 36°50' W 076°17'0 0.0
2017-Mar-29 01:34N 36°50' W 076°17'0 0.0
2017-Mar-29 00:34N 36°50' W 076°17'0 0.0
2017-Mar-28 23:33N 36°50' W 076°17'1 0.7
2017-Mar-28 22:34N 36°51' W 076°17'5 5.0
2017-Mar-28 21:32N 36°55' W 076°20'4 4.1
2017-Mar-28 20:33N 36°59' W 076°20'8 3.9
2017-Mar-28 18:34N 36°60' W 076°10'6 5.6
2017-Mar-28 17:34N 36°58' W 076°04'6 5.7
2017-Mar-28 16:33N 36°56' W 075°57'7 6.8
2017-Mar-28 15:33N 36°52' W 075°50'3 0.2
2017-Mar-27 18:17N 36°49' W 075°47'7 9.0
2017-Mar-27 17:34N 36°53' W 075°54'10 9.6
2017-Mar-27 16:33N 36°58' W 076°05'13 8.7
2017-Mar-27 15:07N 36°58' W 076°20'1 1.1
2017-Mar-27 14:33N 36°58' W 076°21'4 4.2
2017-Mar-27 13:34N 36°53' W 076°20'4 4.2
2017-Mar-27 12:34N 36°50' W 076°16'0 0.1
2017-Mar-27 11:33N 36°50' W 076°16'0 0.0
2017-Mar-27 10:33N 36°50' W 076°16'0 0.0
2017-Mar-27 09:30N 36°50' W 076°16'0 0.0
2017-Mar-27 08:33N 36°50' W 076°16'0 0.0
2017-Mar-27 07:33N 36°50' W 076°16'0 0.0
2017-Mar-27 06:33N 36°50' W 076°16'0 0.0
2017-Mar-27 05:33N 36°50' W 076°16'0 0.0
2017-Mar-27 04:33N 36°50' W 076°16'0 0.0
2017-Mar-27 03:33N 36°50' W 076°16'0 0.0
2017-Mar-27 02:33N 36°50' W 076°16'1 1.2
2017-Mar-27 01:33N 36°49' W 076°17'2 1.6
2017-Mar-27 00:33N 36°48' W 076°18'0 0.0
2017-Mar-26 23:33N 36°48' W 076°18'0 0.0
2017-Mar-26 22:33N 36°48' W 076°18'0 0.0
2017-Mar-26 21:33N 36°48' W 076°18'0 0.0
2017-Mar-26 20:33N 36°48' W 076°18'3 2.5
2017-Mar-26 19:31N 36°50' W 076°17'0 0.0
2017-Mar-26 18:31N 36°50' W 076°17'0 0.0
2017-Mar-26 17:31N 36°50' W 076°17'0 0.0
2017-Mar-26 16:31N 36°50' W 076°17'0 0.0
2017-Mar-26 15:31N 36°50' W 076°17'0 0.0
2017-Mar-26 14:31N 36°50' W 076°17'0 0.0
2017-Mar-26 13:31N 36°50' W 076°17'0 0.0
2017-Mar-26 12:31N 36°50' W 076°17'0 0.0
2017-Mar-26 11:31N 36°50' W 076°17'0 0.0
2017-Mar-26 10:28N 36°50' W 076°17'0 0.0
2017-Mar-26 09:31N 36°50' W 076°17'0 0.0
2017-Mar-26 08:31N 36°50' W 076°17'0 0.0
2017-Mar-26 07:31N 36°50' W 076°17'0 0.0
2017-Mar-26 06:31N 36°50' W 076°17'0 0.0
2017-Mar-26 05:31N 36°50' W 076°17'0 0.0
2017-Mar-26 04:31N 36°50' W 076°17'0 0.0
2017-Mar-26 03:31N 36°50' W 076°17'0 0.0
2017-Mar-26 02:31N 36°50' W 076°17'0 0.0
2017-Mar-26 01:31N 36°50' W 076°17'0 0.0
2017-Mar-26 00:31N 36°50' W 076°17'0 0.0
2017-Mar-25 23:31N 36°50' W 076°17'0 0.0
2017-Mar-25 22:31N 36°50' W 076°17'0 0.0
2017-Mar-25 21:31N 36°50' W 076°17'0 0.0
2017-Mar-25 20:31N 36°50' W 076°17'0 0.0
2017-Mar-25 19:31N 36°50' W 076°17'0 0.0
2017-Mar-25 18:28N 36°50' W 076°17'0 0.0
2017-Mar-25 17:31N 36°50' W 076°17'0 0.0
2017-Mar-25 16:31N 36°50' W 076°17'0 0.0
2017-Mar-25 15:31N 36°50' W 076°17'0 0.0
2017-Mar-25 14:31N 36°50' W 076°17'0 0.0
2017-Mar-25 13:31N 36°50' W 076°17'0 0.0
2017-Mar-25 12:31N 36°50' W 076°17'0 0.0
2017-Mar-25 11:31N 36°50' W 076°17'0 0.0
2017-Mar-25 10:31N 36°50' W 076°17'0 0.0
2017-Mar-25 09:31N 36°50' W 076°17'0 0.0
2017-Mar-25 08:31N 36°50' W 076°17'0 0.0
2017-Mar-25 07:31N 36°50' W 076°17'0 0.0
2017-Mar-25 06:31N 36°50' W 076°17'0 0.0
2017-Mar-25 05:31N 36°50' W 076°17'0 0.0
2017-Mar-25 04:31N 36°50' W 076°17'0 0.0
2017-Mar-25 03:31N 36°50' W 076°17'0 0.0
2017-Mar-25 02:31N 36°50' W 076°17'0 0.0
2017-Mar-25 01:31N 36°50' W 076°17'0 0.0
2017-Mar-25 00:31N 36°50' W 076°17'0 0.0
2017-Mar-24 23:31N 36°50' W 076°17'0 0.0
2017-Mar-24 22:31N 36°50' W 076°17'0 0.0
2017-Mar-24 21:31N 36°50' W 076°17'0 0.0
2017-Mar-24 20:31N 36°50' W 076°17'0 0.0
2017-Mar-24 19:31N 36°50' W 076°17'0 0.0
2017-Mar-24 18:31N 36°50' W 076°17'0 0.1
2017-Mar-24 17:33N 36°50' W 076°17'0 0.2
2017-Mar-24 16:33N 36°50' W 076°16'0 0.0
2017-Mar-24 15:33N 36°50' W 076°16'0 0.0
2017-Mar-24 14:33N 36°50' W 076°16'0 0.0
2017-Mar-24 13:33N 36°50' W 076°16'0 0.0
2017-Mar-24 12:33N 36°50' W 076°16'0 0.0
2017-Mar-24 11:33N 36°50' W 076°16'0 0.0
2017-Mar-24 10:33N 36°50' W 076°16'0 0.0
2017-Mar-24 09:33N 36°50' W 076°16'0 0.0
2017-Mar-24 08:33N 36°50' W 076°16'0 0.0
2017-Mar-24 07:33N 36°50' W 076°16'0 0.0
2017-Mar-24 06:33N 36°50' W 076°16'0 0.0
2017-Mar-24 05:33N 36°50' W 076°16'0 0.0
2017-Mar-24 04:33N 36°50' W 076°16'0 0.0
2017-Mar-24 03:33N 36°50' W 076°16'0 0.0
2017-Mar-24 02:33N 36°50' W 076°16'0 0.0
2017-Mar-24 01:33N 36°50' W 076°16'0 0.0
2017-Mar-24 00:33N 36°50' W 076°16'0 0.0
2017-Mar-23 23:33N 36°50' W 076°16'0 0.0
2017-Mar-23 22:33N 36°50' W 076°16'0 0.0
2017-Mar-23 21:33N 36°50' W 076°16'0 0.0
2017-Mar-23 20:33N 36°50' W 076°16'0 0.0
2017-Mar-23 19:31N 36°50' W 076°16'1 1.1
2017-Mar-23 18:33N 36°51' W 076°18'0 0.3
2017-Mar-23 17:34N 36°51' W 076°18'7 6.6
2017-Mar-23 16:33N 36°57' W 076°20'65 7.1
2017-Mar-23 07:20N 38°02' W 076°14'48 9.6
2017-Mar-23 02:17N 38°50' W 076°26'810.4
2017-Mar-23 01:31N 38°57' W 076°24'10 9.6
2017-Mar-23 00:30N 39°07' W 076°24'8 8.9
2017-Mar-22 23:33N 39°13' W 076°32'4 0.2
2017-Mar-22 01:10N 39°16' W 076°35'1 0.1
2017-Mar-21 09:33N 39°15' W 076°33'2 0.2
2017-Mar-20 21:21N 39°17' W 076°36'2 0.4
2017-Mar-20 15:32N 39°15' W 076°33'2 0.6
2017-Mar-20 12:04N 39°17' W 076°36'2 2.5
2017-Mar-20 11:12N 39°15' W 076°33'1 1.4
2017-Mar-20 10:30N 39°16' W 076°34'1 0.1
2017-Mar-19 21:09N 39°17' W 076°36'  

Dump ship's entire track history